KHRO/HRO METAR and TAF weather

Enter ICAO airport designator
Station Type Date Time Source
KHRO METAR 2020/06/06 01:53 UTC NOAA

KHRO 060153Z AUTO 10004KT 10SM CLR 28/22 A2997 RMK AO2 SLP130 T02830222


Station Type Date Time Source
KHRO Decoded METAR 2020/06/06 01:53 UTC NOAA

HARRISON BOONE COUNTY AIRPORT , AR, United States (KHRO) 36-16N 093-09W 417M
Jun 05, 2020 - 09:53 PM EDT / 2020.06.06 0153 UTC
Wind: from the E (100 degrees) at 5 MPH (4 KT):0
Visibility: 10 mile(s):0
Sky conditions: clear
Temperature: 82.9 F (28.3 C)
Dew Point: 72.0 F (22.2 C)
Relative Humidity: 69%
Pressure (altimeter): 29.97 in. Hg (1014 hPa)
ob: KHRO 060153Z AUTO 10004KT 10SM CLR 28/22 A2997 RMK AO2 SLP130 T02830222
cycle: 2

Station Type Date Time Source
KHRO TAF 2020/06/05 18:33 UTC NOAA

TAF KHRO 051730Z 0518/0618 24007KT P6SM FEW050 SCT250
FM052100 22005KT P6SM SCT050 SCT250
FM060300 VRB03KT P6SM FEW250
FM061000 VRB02KT 2SM BR SKC
FM061300 13003KT P6SM SKC

Example: see airport list